createdAt,value
2018-10-02T00:02:21.181Z,4.60
2018-10-02T00:04:49.465Z,9.63
2018-10-02T00:07:17.733Z,7.00
2018-10-02T00:09:45.953Z,4.80
2018-10-02T00:12:19.686Z,4.57
2018-10-02T00:14:47.917Z,8.07
2018-10-02T00:17:16.264Z,5.20
2018-10-02T00:19:44.546Z,5.57
2018-10-02T00:22:12.764Z,6.00
2018-10-02T00:24:41.074Z,4.87
2018-10-02T00:27:09.397Z,5.53
2018-10-02T00:29:37.665Z,3.67
2018-10-02T00:32:06.035Z,7.93
2018-10-02T00:34:34.172Z,5.63
2018-10-02T00:37:02.424Z,5.30
2018-10-02T00:39:30.726Z,6.50
2018-10-02T00:41:58.985Z,5.83
2018-10-02T00:44:27.257Z,6.53
2018-10-02T00:46:55.535Z,4.87
2018-10-02T00:49:23.825Z,4.90
2018-10-02T00:51:52.108Z,6.03
2018-10-02T00:54:20.357Z,8.10
2018-10-02T00:56:48.628Z,6.93
2018-10-02T00:59:16.876Z,7.50
2018-10-02T01:01:45.130Z,5.43
2018-10-02T01:04:13.385Z,4.67
2018-10-02T01:06:41.662Z,4.43
2018-10-02T01:09:11.500Z,3.87
2018-10-02T01:11:40.137Z,5.07
2018-10-02T01:14:08.405Z,5.03
2018-10-02T01:16:36.728Z,5.17
2018-10-02T01:19:05.185Z,6.77
2018-10-02T01:21:33.902Z,6.17
2018-10-02T01:24:02.177Z,5.33
2018-10-02T01:26:30.445Z,6.47
2018-10-02T01:28:58.719Z,4.93
2018-10-02T01:31:26.981Z,6.47
2018-10-02T01:33:55.294Z,5.80
2018-10-02T01:36:23.572Z,8.53
2018-10-02T01:38:51.832Z,6.43
2018-10-02T01:41:20.109Z,7.00
2018-10-02T01:43:48.380Z,5.13
2018-10-02T01:46:16.680Z,8.43
2018-10-02T01:48:44.993Z,6.40
2018-10-02T01:51:13.292Z,5.03
2018-10-02T01:53:41.517Z,6.87
2018-10-02T01:56:10.513Z,3.13
2018-10-02T01:58:39.082Z,7.63
2018-10-02T02:01:07.410Z,7.17
2018-10-02T02:03:35.739Z,11.93
2018-10-02T02:06:04.024Z,5.63
2018-10-02T02:08:32.300Z,7.13
2018-10-02T02:11:00.554Z,7.30
2018-10-02T02:13:28.843Z,5.23
2018-10-02T02:15:57.119Z,5.93
2018-10-02T02:18:25.372Z,6.23
2018-10-02T02:20:53.643Z,8.50
2018-10-02T02:23:21.905Z,6.47
2018-10-02T02:25:50.125Z,8.93
2018-10-02T02:28:18.397Z,8.73
2018-10-02T02:30:46.626Z,7.07
2018-10-02T02:33:14.853Z,9.07
2018-10-02T02:35:43.097Z,5.47
2018-10-02T02:38:11.364Z,8.00
2018-10-02T02:40:39.649Z,7.67
2018-10-02T02:43:07.947Z,8.90
2018-10-02T02:45:36.180Z,9.70
2018-10-02T02:48:09.629Z,7.73
2018-10-02T02:51:42.752Z,9.37
2018-10-02T02:54:10.987Z,4.57
2018-10-02T02:56:39.228Z,6.50
2018-10-02T02:59:07.459Z,6.87
2018-10-02T03:01:35.811Z,6.00
2018-10-02T03:04:04.078Z,8.30
2018-10-02T03:06:32.314Z,5.63
2018-10-02T03:09:00.488Z,9.53
2018-10-02T03:11:28.660Z,6.23
2018-10-02T03:13:56.894Z,11.63
2018-10-02T03:16:25.112Z,9.57
2018-10-02T03:18:53.259Z,12.50
2018-10-02T03:21:21.423Z,8.53
2018-10-02T03:23:49.575Z,8.80
2018-10-02T03:26:18.463Z,8.30
2018-10-02T03:28:46.719Z,9.07
2018-10-02T03:31:14.934Z,5.47
2018-10-02T03:33:43.098Z,5.83
2018-10-02T03:36:11.246Z,9.77
2018-10-02T03:38:39.414Z,9.00
2018-10-02T03:41:07.660Z,9.43
2018-10-02T03:43:35.855Z,8.63
2018-10-02T03:46:04.040Z,5.60
2018-10-02T03:48:32.812Z,6.77
2018-10-02T03:51:00.975Z,8.70
2018-10-02T03:53:29.138Z,12.63
2018-10-02T03:55:57.343Z,6.43
2018-10-02T03:58:25.938Z,7.23
2018-10-02T04:00:54.112Z,6.73
2018-10-02T04:03:22.452Z,8.17
2018-10-02T04:05:50.622Z,6.00
2018-10-02T04:08:18.782Z,9.77
2018-10-02T04:10:46.970Z,6.27
2018-10-02T04:13:15.245Z,11.20
2018-10-02T04:15:43.942Z,8.13
2018-10-02T04:18:12.085Z,6.07
2018-10-02T04:20:40.924Z,8.47
2018-10-02T04:23:09.071Z,7.00
2018-10-02T04:25:37.268Z,6.20
2018-10-02T04:28:05.550Z,5.27
2018-10-02T04:30:33.703Z,5.23
2018-10-02T04:33:07.613Z,5.60
2018-10-02T04:35:46.510Z,3.97
2018-10-02T04:38:14.820Z,8.27
2018-10-02T04:40:42.978Z,3.10
2018-10-02T04:43:11.131Z,4.83
2018-10-02T04:45:39.275Z,5.87
2018-10-02T04:48:07.423Z,5.50
2018-10-02T04:50:35.698Z,5.03
2018-10-02T04:53:03.882Z,6.27
2018-10-02T04:55:32.067Z,7.93
2018-10-02T04:58:00.223Z,6.30
2018-10-02T05:00:28.358Z,4.50
2018-10-02T05:02:56.618Z,6.63
2018-10-02T05:05:24.776Z,8.10
2018-10-02T05:07:52.932Z,4.73
2018-10-02T05:10:21.075Z,6.30
2018-10-02T05:12:49.220Z,7.07
2018-10-02T05:15:17.411Z,8.43
2018-10-02T05:17:45.628Z,6.40
2018-10-02T05:20:13.849Z,4.23
2018-10-02T05:22:41.982Z,4.13
2018-10-02T05:25:10.219Z,5.43
2018-10-02T05:27:38.456Z,5.10
2018-10-02T05:30:06.583Z,8.03
2018-10-02T05:32:34.726Z,7.20
2018-10-02T05:35:03.055Z,9.33
2018-10-02T05:37:31.131Z,6.33
2018-10-02T05:39:59.345Z,8.67
2018-10-02T05:42:27.480Z,7.13
2018-10-02T05:44:55.631Z,5.00
2018-10-02T05:47:23.812Z,4.90
2018-10-02T05:49:52.007Z,7.70
2018-10-02T05:52:20.156Z,6.87
2018-10-02T05:54:48.324Z,4.83
2018-10-02T05:57:16.495Z,8.67
2018-10-02T05:59:44.720Z,5.60
2018-10-02T06:02:13.980Z,8.07
2018-10-02T06:04:42.156Z,4.53
2018-10-02T06:07:10.298Z,6.97
2018-10-02T06:09:38.472Z,8.70
2018-10-02T06:12:06.619Z,4.60
2018-10-02T06:14:34.852Z,5.07
2018-10-02T06:17:03.039Z,4.90
2018-10-02T06:19:31.200Z,8.73
2018-10-02T06:21:59.395Z,4.93
2018-10-02T06:24:27.839Z,11.17
2018-10-02T06:26:55.999Z,7.80
2018-10-02T06:29:24.244Z,6.77
2018-10-02T06:31:52.383Z,9.13
2018-10-02T06:34:20.536Z,4.70
2018-10-02T06:36:48.790Z,5.37
2018-10-02T06:39:16.979Z,5.67
2018-10-02T06:41:45.195Z,8.30
2018-10-02T06:44:13.454Z,6.73
2018-10-02T06:46:42.231Z,6.20
2018-10-02T06:49:10.424Z,7.47
2018-10-02T06:51:38.684Z,7.80
2018-10-02T06:54:06.878Z,6.47
2018-10-02T06:56:36.016Z,6.23
2018-10-02T06:59:04.199Z,6.03
2018-10-02T07:01:32.359Z,4.43
2018-10-02T07:04:01.057Z,5.40
2018-10-02T07:06:29.243Z,5.07
2018-10-02T07:08:57.412Z,5.83
2018-10-02T07:11:25.576Z,6.80
2018-10-02T07:13:53.879Z,6.37
2018-10-02T07:16:22.147Z,5.10
2018-10-02T07:18:50.441Z,7.00
2018-10-02T07:21:18.626Z,7.67
2018-10-02T07:23:46.791Z,5.53
2018-10-02T07:26:14.935Z,5.03
2018-10-02T07:28:43.127Z,5.57
2018-10-02T07:31:11.317Z,6.73
2018-10-02T07:33:39.479Z,5.50
2018-10-02T07:36:07.667Z,3.87
2018-10-02T07:38:35.871Z,7.87
2018-10-02T07:41:04.078Z,6.10
2018-10-02T07:43:32.411Z,5.97
2018-10-02T07:46:00.587Z,9.10
2018-10-02T07:48:28.768Z,4.13
2018-10-02T07:50:57.023Z,5.73
2018-10-02T07:53:25.127Z,4.57
2018-10-02T07:55:53.295Z,5.70
2018-10-02T07:58:21.441Z,4.57
2018-10-02T08:00:49.644Z,6.87
2018-10-02T08:03:17.820Z,7.87
2018-10-02T08:05:46.660Z,4.10
2018-10-02T08:08:14.836Z,9.03
2018-10-02T08:10:43.016Z,6.67
2018-10-02T08:13:11.223Z,6.30
2018-10-02T08:15:39.666Z,6.13
2018-10-02T08:18:08.400Z,6.57
2018-10-02T08:20:36.607Z,10.30
2018-10-02T08:23:04.745Z,7.10
2018-10-02T08:25:32.924Z,5.63
2018-10-02T08:28:01.115Z,4.80
2018-10-02T08:30:29.348Z,6.07
2018-10-02T08:32:57.559Z,5.63
2018-10-02T08:35:25.901Z,11.53
2018-10-02T08:37:54.241Z,5.43
2018-10-02T08:40:22.411Z,6.57
2018-10-02T08:42:51.236Z,7.03
2018-10-02T08:45:19.499Z,10.97
2018-10-02T08:47:47.670Z,6.80
2018-10-02T08:50:15.879Z,11.70
2018-10-02T08:52:44.054Z,7.60
2018-10-02T08:55:12.204Z,7.57
2018-10-02T08:57:41.032Z,5.00
2018-10-02T09:00:09.693Z,6.23
2018-10-02T09:02:37.906Z,5.57
2018-10-02T09:05:06.076Z,5.37
2018-10-02T09:07:34.211Z,4.93
2018-10-02T09:10:02.373Z,7.43
2018-10-02T09:12:30.605Z,6.90
2018-10-02T09:14:58.718Z,6.37
2018-10-02T09:17:26.872Z,6.33
2018-10-02T09:19:55.068Z,4.83
2018-10-02T09:22:23.705Z,4.20
2018-10-02T09:24:52.033Z,6.30
2018-10-02T09:27:20.148Z,4.73
2018-10-02T09:29:53.646Z,4.70
2018-10-02T09:32:27.185Z,4.40
2018-10-02T09:35:00.798Z,4.90
2018-10-02T09:37:34.275Z,6.30
2018-10-02T09:40:07.911Z,9.90
2018-10-02T09:42:41.499Z,7.57
2018-10-02T09:45:09.609Z,8.13
2018-10-02T09:47:37.801Z,5.40
2018-10-02T09:50:05.954Z,7.37
2018-10-02T09:52:34.164Z,5.70
2018-10-02T09:55:02.353Z,7.13
2018-10-02T09:57:30.547Z,7.83
2018-10-02T09:59:58.858Z,5.43
2018-10-02T10:02:32.978Z,7.77
2018-10-02T10:05:01.371Z,5.30
2018-10-02T10:07:29.584Z,7.47
2018-10-02T10:09:57.749Z,6.40
2018-10-02T10:12:25.930Z,6.50
2018-10-02T10:14:54.059Z,5.73
2018-10-02T10:17:22.384Z,5.80
2018-10-02T10:19:50.527Z,7.20
2018-10-02T10:22:18.687Z,5.93
2018-10-02T10:24:46.885Z,5.13
2018-10-02T10:27:15.033Z,6.70
2018-10-02T10:29:43.174Z,4.97
2018-10-02T10:32:11.798Z,6.77
2018-10-02T10:34:40.009Z,4.90
2018-10-02T10:37:08.317Z,5.00
2018-10-02T10:39:36.499Z,6.60
2018-10-02T10:42:04.662Z,4.53
2018-10-02T10:44:32.868Z,6.10
2018-10-02T10:47:01.123Z,5.90
2018-10-02T10:49:29.183Z,3.50
2018-10-02T10:51:57.551Z,4.43
2018-10-02T10:54:25.703Z,4.43
2018-10-02T10:56:53.874Z,4.97
2018-10-02T10:59:22.240Z,5.33
2018-10-02T11:01:50.417Z,3.30
2018-10-02T11:04:18.568Z,4.90
2018-10-02T11:06:46.723Z,3.10
2018-10-02T11:09:14.906Z,4.30
2018-10-02T11:11:43.090Z,4.10
2018-10-02T11:14:11.258Z,5.00
2018-10-02T11:16:39.591Z,4.50
2018-10-02T11:19:07.746Z,4.17
2018-10-02T11:21:35.911Z,3.80
2018-10-02T11:24:04.163Z,5.07
2018-10-02T11:26:32.260Z,3.13
2018-10-02T11:29:00.442Z,5.83
2018-10-02T11:31:28.668Z,5.73
2018-10-02T11:33:56.807Z,3.37
2018-10-02T11:36:25.000Z,4.17
2018-10-02T11:38:53.199Z,5.37
2018-10-02T11:41:21.358Z,6.37
2018-10-02T11:43:49.604Z,3.43
2018-10-02T11:46:17.687Z,8.27
2018-10-02T11:48:45.893Z,5.97
2018-10-02T11:51:14.143Z,4.27
2018-10-02T11:53:42.288Z,4.67
2018-10-02T11:56:10.468Z,4.23
2018-10-02T11:58:38.662Z,5.17
2018-10-02T12:01:06.941Z,5.27
2018-10-02T12:03:35.047Z,3.17
2018-10-02T12:06:03.171Z,2.50
2018-10-02T12:08:31.330Z,2.70
2018-10-02T12:10:59.583Z,2.60
2018-10-02T12:13:27.816Z,2.30
2018-10-02T12:15:55.886Z,1.80
2018-10-02T12:18:24.131Z,3.03
2018-10-02T12:20:52.376Z,2.37
2018-10-02T12:23:20.529Z,1.50
2018-10-02T12:25:48.678Z,1.93
2018-10-02T12:28:16.855Z,3.07
2018-10-02T12:30:45.031Z,3.93
2018-10-02T12:33:13.275Z,1.87
2018-10-02T12:35:41.474Z,2.83
2018-10-02T12:38:09.608Z,2.13
2018-10-02T12:40:37.762Z,2.07
2018-10-02T12:43:05.981Z,1.77
2018-10-02T12:45:34.150Z,2.27
2018-10-02T12:48:02.356Z,3.33
2018-10-02T12:50:30.507Z,3.07
2018-10-02T12:52:58.743Z,1.73
2018-10-02T12:55:26.912Z,2.50
2018-10-02T12:57:55.155Z,3.63
2018-10-02T13:00:23.340Z,2.30
2018-10-02T13:02:51.497Z,2.60
2018-10-02T13:05:19.666Z,3.40
2018-10-02T13:07:47.848Z,2.50
2018-10-02T13:10:16.005Z,3.40
2018-10-02T13:12:44.188Z,2.00
2018-10-02T13:15:12.343Z,2.07
2018-10-02T13:17:40.535Z,2.83
2018-10-02T13:20:08.786Z,3.17
2018-10-02T13:22:36.958Z,2.93
2018-10-02T13:25:05.114Z,3.73
2018-10-02T13:27:33.258Z,2.67
2018-10-02T13:30:01.418Z,2.17
2018-10-02T13:32:29.599Z,2.20
2018-10-02T13:34:57.839Z,3.10
2018-10-02T13:37:26.025Z,2.27
2018-10-02T13:39:54.195Z,2.97
2018-10-02T13:42:22.598Z,2.37
2018-10-02T13:44:50.906Z,2.23
2018-10-02T13:47:19.071Z,1.83
2018-10-02T13:49:47.219Z,4.23
2018-10-02T13:52:15.550Z,1.87
2018-10-02T13:54:43.710Z,1.93
2018-10-02T13:57:11.974Z,2.80
2018-10-02T13:59:40.157Z,2.83
2018-10-02T14:02:08.303Z,3.37
2018-10-02T14:04:36.458Z,3.07
2018-10-02T14:07:04.667Z,2.57
2018-10-02T14:09:32.912Z,3.43
2018-10-02T14:12:01.186Z,4.37
2018-10-02T14:14:29.424Z,3.30
2018-10-02T14:16:57.594Z,3.20
2018-10-02T14:19:25.818Z,2.70
2018-10-02T14:21:54.016Z,4.77
2018-10-02T14:24:22.220Z,2.70
2018-10-02T14:26:50.366Z,6.23
2018-10-02T14:29:18.538Z,3.13
2018-10-02T14:31:46.771Z,3.00
2018-10-02T14:34:15.005Z,5.03
2018-10-02T14:36:43.211Z,4.70
2018-10-02T14:39:12.002Z,5.50
2018-10-02T14:41:40.496Z,5.30
2018-10-02T14:44:08.734Z,5.20
2018-10-02T14:46:36.991Z,7.40
2018-10-02T14:49:05.184Z,5.87
2018-10-02T14:51:33.379Z,6.47
2018-10-02T14:54:01.968Z,5.67
2018-10-02T14:56:30.163Z,5.47
2018-10-02T14:58:58.570Z,10.60
2018-10-02T15:01:26.754Z,7.70
2018-10-02T15:03:54.886Z,6.80
2018-10-02T15:06:23.047Z,10.20
2018-10-02T15:08:51.202Z,8.80
2018-10-02T15:11:19.368Z,8.90
2018-10-02T15:13:47.571Z,9.50
2018-10-02T15:16:15.716Z,7.30
2018-10-02T15:18:43.871Z,9.03
2018-10-02T15:21:12.048Z,11.50
2018-10-02T15:23:40.272Z,11.70
2018-10-02T15:26:08.439Z,10.57
2018-10-02T15:28:36.615Z,11.33
2018-10-02T15:31:04.791Z,10.80
2018-10-02T15:33:33.195Z,11.03
2018-10-02T15:36:01.342Z,14.07
2018-10-02T15:38:29.588Z,10.50
2018-10-02T15:40:57.723Z,16.13
2018-10-02T15:43:25.923Z,13.07
2018-10-02T15:45:54.106Z,14.10
2018-10-02T15:48:22.364Z,11.50
2018-10-02T15:50:50.558Z,12.70
2018-10-02T15:53:18.722Z,13.93
2018-10-02T15:55:46.862Z,12.13
2018-10-02T15:58:15.036Z,12.40
2018-10-02T16:00:43.309Z,10.57
2018-10-02T16:03:11.450Z,12.43
2018-10-02T16:05:39.615Z,11.07
2018-10-02T16:08:07.802Z,13.63
2018-10-02T16:10:36.009Z,13.10
2018-10-02T16:13:04.215Z,10.90
2018-10-02T16:15:32.402Z,15.70
2018-10-02T16:18:00.634Z,11.23
2018-10-02T16:20:28.791Z,10.97
2018-10-02T16:22:57.019Z,15.13
2018-10-02T16:25:25.233Z,12.80
2018-10-02T16:27:53.490Z,13.50
2018-10-02T16:30:21.583Z,13.03
2018-10-02T16:32:49.777Z,11.07
2018-10-02T16:35:18.039Z,11.40
2018-10-02T16:37:46.380Z,9.93
2018-10-02T16:40:14.570Z,9.47
2018-10-02T16:42:42.769Z,13.93
2018-10-02T16:45:11.048Z,12.00
2018-10-02T16:47:39.301Z,13.50
2018-10-02T16:50:07.505Z,12.47
2018-10-02T16:52:35.736Z,12.97
2018-10-02T16:55:03.936Z,13.57
2018-10-02T16:57:32.209Z,13.10
2018-10-02T17:00:00.419Z,11.63
2018-10-02T17:02:28.602Z,9.50
2018-10-02T17:04:56.771Z,10.80
2018-10-02T17:07:24.975Z,10.63
2018-10-02T17:09:53.162Z,9.90
2018-10-02T17:12:21.335Z,11.20
2018-10-02T17:14:49.518Z,13.90
2018-10-02T17:17:17.684Z,13.27
2018-10-02T17:19:45.859Z,12.80
2018-10-02T17:22:14.071Z,13.73
2018-10-02T17:24:42.255Z,12.97
2018-10-02T17:27:10.594Z,11.37
2018-10-02T17:29:38.763Z,16.00
2018-10-02T17:32:07.043Z,10.20
2018-10-02T17:34:35.214Z,12.63
2018-10-02T17:37:03.567Z,11.10
2018-10-02T17:39:31.726Z,14.13
2018-10-02T17:41:59.904Z,14.43
2018-10-02T17:44:28.075Z,10.63
2018-10-02T17:46:56.275Z,13.87
2018-10-02T17:49:24.523Z,12.43
2018-10-02T17:51:52.692Z,9.40
2018-10-02T17:54:20.846Z,18.10
2018-10-02T17:56:49.116Z,11.07
2018-10-02T17:59:17.404Z,10.50
2018-10-02T18:01:45.586Z,14.53
2018-10-02T18:04:13.821Z,11.10
2018-10-02T18:06:42.035Z,15.27
2018-10-02T18:09:10.247Z,11.87
2018-10-02T18:11:38.507Z,10.97
2018-10-02T18:14:06.754Z,10.63
2018-10-02T18:16:34.891Z,14.17
2018-10-02T18:19:03.057Z,13.17
2018-10-02T18:21:31.274Z,11.87
2018-10-02T18:23:59.523Z,12.23
2018-10-02T18:26:27.712Z,10.43
2018-10-02T18:28:56.040Z,10.93
2018-10-02T18:31:24.215Z,11.30
2018-10-02T18:33:52.485Z,12.60
2018-10-02T18:36:20.636Z,18.53
2018-10-02T18:38:48.962Z,14.60
2018-10-02T18:41:17.146Z,14.07
2018-10-02T18:43:45.259Z,15.77
2018-10-02T18:46:13.447Z,14.50
2018-10-02T18:48:41.665Z,11.07
2018-10-02T18:51:09.838Z,11.97
2018-10-02T18:53:38.026Z,13.23
2018-10-02T18:56:06.547Z,9.80
2018-10-02T18:58:34.711Z,11.53
2018-10-02T19:01:02.971Z,9.57
2018-10-02T19:03:31.766Z,10.33
2018-10-02T19:06:00.000Z,14.30
2018-10-02T19:08:33.351Z,12.00
2018-10-02T19:11:06.927Z,11.33
2018-10-02T19:13:35.097Z,10.63
2018-10-02T19:16:08.615Z,15.50
2018-10-02T19:18:36.879Z,12.50
2018-10-02T19:21:05.051Z,11.10
2018-10-02T19:23:33.345Z,12.53
2018-10-02T19:26:07.170Z,11.27
2018-10-02T19:28:35.382Z,14.30
2018-10-02T19:31:08.927Z,10.37
2018-10-02T19:33:37.116Z,14.30
2018-10-02T19:36:08.239Z,10.43
2018-10-02T19:38:41.846Z,10.00
2018-10-02T19:41:10.081Z,9.90
2018-10-02T19:43:38.257Z,10.87
2018-10-02T19:46:11.780Z,10.27
2018-10-02T19:48:39.950Z,13.90
2018-10-02T19:51:13.503Z,12.27
2018-10-02T19:53:41.691Z,11.90
2018-10-02T19:56:09.893Z,13.83
2018-10-02T19:58:38.129Z,10.07
2018-10-02T20:01:06.351Z,12.83
2018-10-02T20:10:41.191Z,10.30
2018-10-02T20:13:09.404Z,9.50
2018-10-02T20:15:37.606Z,9.37
2018-10-02T20:18:05.776Z,10.70
2018-10-02T20:20:34.014Z,12.43
2018-10-02T20:23:02.224Z,12.77
2018-10-02T20:25:30.368Z,12.47
2018-10-02T20:27:58.642Z,10.17
2018-10-02T20:30:26.999Z,12.03
2018-10-02T20:32:55.341Z,10.97
2018-10-02T20:35:23.503Z,11.10
2018-10-02T20:37:51.989Z,10.83
2018-10-02T20:40:20.676Z,12.33
2018-10-02T20:42:48.843Z,10.27
2018-10-02T20:45:17.054Z,11.27
2018-10-02T20:47:45.232Z,12.27
2018-10-02T20:50:13.426Z,13.40
2018-10-02T20:52:41.612Z,13.93
2018-10-02T20:55:09.760Z,12.53
2018-10-02T20:57:37.943Z,16.27
2018-10-02T21:00:06.140Z,15.17
2018-10-02T21:02:34.339Z,14.70
2018-10-02T21:05:02.530Z,13.90
2018-10-02T21:07:30.750Z,19.03
2018-10-02T21:09:59.048Z,17.97
2018-10-02T21:12:27.207Z,15.33
2018-10-02T21:14:55.395Z,15.53
2018-10-02T21:17:23.731Z,17.17
2018-10-02T21:19:51.940Z,14.50
2018-10-02T21:22:20.055Z,15.17
2018-10-02T21:24:48.254Z,17.70
2018-10-02T21:27:16.419Z,17.33
2018-10-02T21:29:44.704Z,18.83
2018-10-02T21:32:12.903Z,19.93
2018-10-02T21:34:41.323Z,20.23
2018-10-02T21:37:09.399Z,18.43
2018-10-02T21:39:37.603Z,22.37
2018-10-02T21:42:05.875Z,20.27
2018-10-02T21:44:34.055Z,18.57
2018-10-02T21:47:02.260Z,20.87
2018-10-02T21:49:30.433Z,21.40
2018-10-02T21:51:58.603Z,23.17
2018-10-02T21:54:26.816Z,20.10
2018-10-02T21:56:55.016Z,21.93
2018-10-02T21:59:23.142Z,20.13
2018-10-02T22:01:51.347Z,19.83
2018-10-02T22:04:19.594Z,23.83
2018-10-02T22:06:47.851Z,23.60
2018-10-02T22:09:16.053Z,20.07
2018-10-02T22:11:44.408Z,24.43
2018-10-02T22:14:12.607Z,22.60
2018-10-02T22:16:40.803Z,20.93
2018-10-02T22:19:09.034Z,24.77
2018-10-02T22:21:37.254Z,21.43
2018-10-02T22:24:05.486Z,23.30
2018-10-02T22:26:33.707Z,20.63
2018-10-02T22:29:01.908Z,23.03
2018-10-02T22:31:30.127Z,23.13
2018-10-02T22:33:58.271Z,20.93
2018-10-02T22:36:26.483Z,23.33
2018-10-02T22:38:54.663Z,24.80
2018-10-02T22:41:22.827Z,25.37
2018-10-02T22:43:51.007Z,21.77
2018-10-02T22:46:19.199Z,24.63
2018-10-02T22:48:47.479Z,22.00
2018-10-02T22:51:15.679Z,21.90
2018-10-02T22:53:43.942Z,20.97
2018-10-02T22:56:12.139Z,25.83
2018-10-02T22:58:40.299Z,21.47
2018-10-02T23:01:08.499Z,21.60
2018-10-02T23:03:36.691Z,19.53
2018-10-02T23:06:04.956Z,22.50
2018-10-02T23:08:33.115Z,19.90
2018-10-02T23:11:01.283Z,20.40
2018-10-02T23:13:29.457Z,19.63
2018-10-02T23:15:57.662Z,21.97
2018-10-02T23:18:25.835Z,21.47
2018-10-02T23:20:53.986Z,21.70
2018-10-02T23:23:22.138Z,20.07
2018-10-02T23:25:50.326Z,20.50
2018-10-02T23:28:18.541Z,21.63
2018-10-02T23:30:46.831Z,20.13
2018-10-02T23:33:14.999Z,21.00
2018-10-02T23:35:43.795Z,20.00
2018-10-02T23:38:12.023Z,19.03
2018-10-02T23:40:40.228Z,20.00
2018-10-02T23:43:08.427Z,19.17
2018-10-02T23:45:36.630Z,19.50
2018-10-02T23:48:04.802Z,20.00
2018-10-02T23:50:33.275Z,18.73
2018-10-02T23:53:01.559Z,20.00
2018-10-02T23:55:29.755Z,17.30
2018-10-02T23:57:57.940Z,21.70
